Time;durP1;ratioP1;P1;durP2;ratioP2;P2;SDS_P1;SDS_P2;PMS_P1;PMS_P2;Temp;Humidity;BMP_temperature;BMP_pressure;BME280_temperature;BME280_humidity;BME280_pressure;Samples;Min_cycle;Max_cycle;Signal;HPM_P1;HPM_P2
2024/01/05 00:02:13;;;;;;;7.85;2.50;;;22.40;42.40;;;;;;5118750;28;20131;-35
2024/01/05 00:04:40;;;;;;;5.40;1.95;;;22.30;42.70;;;;;;5110234;28;20032;-34
2024/01/05 00:07:09;;;;;;;3.92;1.95;;;22.30;42.80;;;;;;5110317;28;20031;-33
2024/01/05 00:09:35;;;;;;;2.10;1.90;;;22.30;41.80;;;;;;5118846;28;20583;-34
2024/01/05 00:12:03;;;;;;;3.58;1.90;;;22.40;41.50;;;;;;5113067;28;20118;-33
2024/01/05 00:14:30;;;;;;;2.83;1.90;;;22.50;41.70;;;;;;5109989;28;20039;-32
2024/01/05 00:16:59;;;;;;;3.63;2.00;;;22.60;41.70;;;;;;5127043;27;20035;-35
2024/01/05 00:19:25;;;;;;;2.42;1.80;;;22.60;41.70;;;;;;5115226;27;20028;-36
2024/01/05 00:21:51;;;;;;;2.10;1.90;;;22.60;41.80;;;;;;5095403;28;20040;-35
2024/01/05 00:24:17;;;;;;;2.65;1.88;;;22.50;41.90;;;;;;5111295;28;20489;-35
2024/01/05 00:26:44;;;;;;;2.00;1.80;;;22.50;41.90;;;;;;5116097;28;20028;-34
2024/01/05 00:29:10;;;;;;;1.90;1.70;;;22.40;42.30;;;;;;5118189;27;20035;-32
2024/01/05 00:31:36;;;;;;;2.30;1.90;;;22.40;41.80;;;;;;5113968;28;20024;-32
2024/01/05 00:34:02;;;;;;;2.28;2.08;;;22.40;41.90;;;;;;5117130;28;20028;-35
2024/01/05 00:36:28;;;;;;;4.25;2.05;;;22.30;41.90;;;;;;5112625;28;20050;-34
2024/01/05 00:38:54;;;;;;;2.53;2.00;;;22.20;41.90;;;;;;5114789;28;20028;-32
2024/01/05 00:41:21;;;;;;;1.55;1.45;;;22.20;42.00;;;;;;5115757;28;20027;-32
2024/01/05 00:43:47;;;;;;;2.42;1.80;;;22.20;41.70;;;;;;5116260;28;20054;-34
2024/01/05 00:46:14;;;;;;;2.22;1.77;;;22.20;41.80;;;;;;5115492;27;20024;-31
2024/01/05 00:48:40;;;;;;;2.00;1.58;;;22.20;42.00;;;;;;5109800;28;20051;-33
2024/01/05 00:51:07;;;;;;;2.70;1.90;;;22.10;42.00;;;;;;5087792;28;20051;-33
2024/01/05 00:53:33;;;;;;;1.77;1.67;;;22.00;42.00;;;;;;5094408;27;20028;-36
2024/01/05 00:55:59;;;;;;;2.00;1.40;;;22.10;42.00;;;;;;5122890;28;20424;-32
2024/01/05 00:58:25;;;;;;;1.65;1.55;;;22.30;41.70;;;;;;5123816;28;20061;-37
2024/01/05 01:00:51;;;;;;;1.50;1.30;;;22.30;41.60;;;;;;5096037;28;20363;-35
2024/01/05 01:03:17;;;;;;;2.00;1.80;;;22.30;41.70;;;;;;5118357;28;20024;-31
2024/01/05 01:05:44;;;;;;;1.85;1.65;;;22.20;41.70;;;;;;5120210;28;20132;-33
2024/01/05 01:08:30;;;;;;;1.73;1.50;;;22.10;41.80;;;;;;5052815;28;20600;-32
2024/01/05 01:10:56;;;;;;;2.00;1.70;;;22.10;41.90;;;;;;5057803;28;20097;-37
2024/01/05 01:13:22;;;;;;;1.60;1.50;;;22.00;41.80;;;;;;5050268;28;20049;-36
2024/01/05 01:15:48;;;;;;;2.03;1.52;;;22.00;41.70;;;;;;5056311;28;20036;-35
2024/01/05 01:18:14;;;;;;;2.05;1.80;;;22.00;41.80;;;;;;5048068;28;20076;-35
2024/01/05 01:20:41;;;;;;;1.75;1.55;;;22.00;42.00;;;;;;5058327;28;20064;-30
2024/01/05 01:23:07;;;;;;;2.13;1.60;;;21.90;42.00;;;;;;5055348;28;20030;-31
2024/01/05 01:25:33;;;;;;;1.45;1.35;;;21.90;42.00;;;;;;5056053;28;20033;-35
2024/01/05 01:28:00;;;;;;;1.60;1.42;;;21.90;41.90;;;;;;5058905;28;20037;-35
2024/01/05 01:30:26;;;;;;;1.60;1.50;;;22.10;41.70;;;;;;5055482;28;20033;-32
2024/01/05 01:32:52;;;;;;;1.35;1.25;;;22.20;41.60;;;;;;5051973;28;20289;-35
2024/01/05 01:35:18;;;;;;;1.58;1.40;;;22.10;41.70;;;;;;5056130;28;20087;-33
2024/01/05 01:37:44;;;;;;;2.20;1.48;;;22.10;41.80;;;;;;5054197;28;20048;-34
2024/01/05 01:40:11;;;;;;;1.65;1.55;;;22.00;41.90;;;;;;5051077;28;20053;-37
2024/01/05 01:42:37;;;;;;;1.77;1.60;;;21.90;42.00;;;;;;5050286;28;20029;-34
2024/01/05 01:45:03;;;;;;;1.80;1.70;;;21.90;41.90;;;;;;5064882;28;20115;-37
2024/01/05 01:47:30;;;;;;;2.10;1.90;;;21.90;41.90;;;;;;5110087;28;20892;-32
2024/01/05 01:49:56;;;;;;;2.33;1.30;;;21.90;42.00;;;;;;5118271;28;20072;-36
2024/01/05 01:52:22;;;;;;;1.88;1.55;;;21.80;42.00;;;;;;5095301;28;20393;-31
2024/01/05 01:54:49;;;;;;;1.70;1.55;;;21.80;42.10;;;;;;5114861;28;20043;-35
2024/01/05 01:57:17;;;;;;;1.60;1.50;;;21.70;42.00;;;;;;5089198;28;20556;-33
2024/01/05 01:59:43;;;;;;;1.75;1.38;;;21.90;42.00;;;;;;5110994;28;20035;-36
2024/01/05 02:02:11;;;;;;;1.40;1.23;;;22.00;41.70;;;;;;5110899;27;20636;-35
2024/01/05 02:04:37;;;;;;;1.83;1.60;;;22.10;41.80;;;;;;5113397;28;20860;-34
2024/01/05 02:07:03;;;;;;;3.42;1.52;;;22.00;41.90;;;;;;5109692;28;20027;-34
2024/01/05 02:09:29;;;;;;;1.95;1.75;;;21.90;41.90;;;;;;5111466;27;20036;-36
2024/01/05 02:11:56;;;;;;;1.33;1.23;;;21.80;42.00;;;;;;5083582;28;20024;-33
2024/01/05 02:14:22;;;;;;;1.65;1.55;;;21.80;42.00;;;;;;5123351;27;20052;-32
2024/01/05 02:16:48;;;;;;;1.55;1.45;;;21.80;41.80;;;;;;5087529;28;20032;-34
2024/01/05 02:19:14;;;;;;;1.60;1.50;;;21.80;41.90;;;;;;5109537;28;20100;-33
2024/01/05 02:21:42;;;;;;;1.65;1.55;;;21.70;42.00;;;;;;5108625;28;20020;-32
2024/01/05 02:24:08;;;;;;;2.00;1.83;;;21.70;42.10;;;;;;5091183;28;20036;-34
2024/01/05 02:26:35;;;;;;;2.05;1.63;;;21.60;42.10;;;;;;5110990;27;20050;-31
2024/01/05 02:29:04;;;;;;;3.00;1.38;;;21.60;42.00;;;;;;5114245;28;20044;-32
2024/01/05 02:31:30;;;;;;;1.67;1.35;;;21.80;41.90;;;;;;5110650;28;20148;-30
2024/01/05 02:33:56;;;;;;;1.95;1.75;;;22.00;41.60;;;;;;5105734;28;20074;-34
2024/01/05 02:36:22;;;;;;;1.80;1.50;;;21.90;41.70;;;;;;5121820;28;20054;-34
2024/01/05 02:38:49;;;;;;;1.90;1.60;;;21.90;41.80;;;;;;5116573;28;20074;-35
2024/01/05 02:41:15;;;;;;;1.92;1.67;;;21.80;41.90;;;;;;5093898;28;20024;-30
2024/01/05 02:43:41;;;;;;;2.65;1.95;;;21.70;41.90;;;;;;5093425;28;20035;-35
2024/01/05 02:46:09;;;;;;;1.52;1.42;;;21.70;41.80;;;;;;5109551;28;20660;-34
2024/01/05 02:48:35;;;;;;;1.92;1.80;;;21.70;41.80;;;;;;5111732;28;20095;-31
2024/01/05 02:51:01;;;;;;;2.80;1.95;;;21.70;42.00;;;;;;5113230;28;20059;-35
2024/01/05 02:53:27;;;;;;;1.88;1.70;;;21.60;42.00;;;;;;5101744;28;20030;-35
2024/01/05 02:55:54;;;;;;;3.03;1.40;;;21.60;42.10;;;;;;5112833;28;20073;-34
2024/01/05 02:58:20;;;;;;;1.95;1.70;;;21.50;42.10;;;;;;5100487;28;20142;-33
2024/01/05 03:00:46;;;;;;;1.90;1.50;;;21.60;42.00;;;;;;5113507;28;20023;-36
2024/01/05 03:03:13;;;;;;;1.48;1.38;;;21.80;41.80;;;;;;5083979;28;20062;-34
2024/01/05 03:05:39;;;;;;;1.60;1.45;;;21.90;41.70;;;;;;5096775;28;20099;-35
2024/01/05 03:08:06;;;;;;;1.65;1.55;;;21.80;41.80;;;;;;5113319;28;20036;-34
2024/01/05 03:10:32;;;;;;;2.80;1.70;;;21.70;41.90;;;;;;5112895;28;20040;-33
2024/01/05 03:12:58;;;;;;;2.03;1.88;;;21.60;41.90;;;;;;5105357;28;20034;-35
2024/01/05 03:15:24;;;;;;;1.63;1.52;;;21.60;42.00;;;;;;5111669;28;20028;-30
2024/01/05 03:17:50;;;;;;;2.88;1.70;;;21.60;41.80;;;;;;5113104;28;20028;-34
2024/01/05 03:20:17;;;;;;;1.90;1.67;;;21.60;41.70;;;;;;5114470;28;20039;-35
2024/01/05 03:22:43;;;;;;;2.10;1.90;;;21.60;41.90;;;;;;5105198;28;20034;-34
2024/01/05 03:25:10;;;;;;;2.47;2.17;;;21.50;42.00;;;;;;5113479;28;20039;-32
2024/01/05 03:27:36;;;;;;;1.50;1.40;;;21.50;42.10;;;;;;5116639;28;20761;-36
2024/01/05 03:30:02;;;;;;;1.80;1.33;;;21.50;42.10;;;;;;5117684;28;20047;-33
2024/01/05 03:32:29;;;;;;;1.67;1.58;;;21.50;41.90;;;;;;5120425;28;20720;-34
2024/01/05 03:34:55;;;;;;;1.70;1.48;;;21.70;41.80;;;;;;5093523;28;20032;-35
2024/01/05 03:37:21;;;;;;;1.85;1.65;;;21.80;41.70;;;;;;5117583;28;20027;-33
2024/01/05 03:39:47;;;;;;;1.92;1.80;;;21.70;41.80;;;;;;5113283;28;20104;-33
2024/01/05 03:42:13;;;;;;;2.25;1.60;;;21.60;41.80;;;;;;5115223;28;20016;-35
2024/01/05 03:44:39;;;;;;;1.55;1.45;;;21.50;41.90;;;;;;5108779;28;20740;-32
2024/01/05 03:47:06;;;;;;;2.05;1.48;;;21.50;41.80;;;;;;5104352;28;20125;-32
2024/01/05 03:49:32;;;;;;;1.60;1.50;;;21.50;41.90;;;;;;5109323;28;20052;-32
2024/01/05 03:51:58;;;;;;;3.63;1.52;;;21.60;41.90;;;;;;5110817;28;20023;-36
2024/01/05 03:54:24;;;;;;;1.83;1.50;;;21.60;41.80;;;;;;5112163;28;20031;-32
2024/01/05 03:56:50;;;;;;;2.13;1.70;;;21.60;41.70;;;;;;5114810;28;20024;-33
2024/01/05 03:59:16;;;;;;;2.65;1.52;;;21.70;41.70;;;;;;5110688;28;20040;-34
2024/01/05 04:01:46;;;;;;;2.53;1.92;;;21.90;41.70;;;;;;5112151;28;20028;-35
2024/01/05 04:04:12;;;;;;;2.53;1.67;;;22.00;41.60;;;;;;5107220;28;20055;-32
2024/01/05 04:06:39;;;;;;;1.50;1.40;;;22.00;41.70;;;;;;5109834;28;20058;-31
2024/01/05 04:09:09;;;;;;;2.47;1.52;;;22.00;41.60;;;;;;5109128;28;20388;-32
2024/01/05 04:11:38;;;;;;;1.98;1.50;;;22.10;41.60;;;;;;5109129;28;20079;-33
2024/01/05 04:14:05;;;;;;;1.98;1.50;;;22.30;41.50;;;;;;5114111;27;20109;-34
2024/01/05 04:16:31;;;;;;;1.42;1.33;;;22.40;41.30;;;;;;5093677;28;20045;-36
2024/01/05 04:18:57;;;;;;;1.98;1.67;;;22.40;41.20;;;;;;5120260;28;20032;-35
2024/01/05 04:21:23;;;;;;;2.83;1.60;;;22.60;41.10;;;;;;5116658;28;20019;-35
2024/01/05 04:23:51;;;;;;;2.35;1.60;;;22.60;41.20;;;;;;5114118;28;20066;-33
2024/01/05 04:26:17;;;;;;;1.45;1.35;;;22.70;40.90;;;;;;5121589;28;20028;-35
2024/01/05 04:28:44;;;;;;;1.58;1.48;;;22.80;40.70;;;;;;5115370;28;20039;-34
2024/01/05 04:31:10;;;;;;;2.53;1.87;;;22.90;40.30;;;;;;5115174;28;20024;-34
2024/01/05 04:33:36;;;;;;;2.10;1.90;;;23.00;40.60;;;;;;5131345;27;20043;-35
2024/01/05 04:36:03;;;;;;;2.28;1.50;;;23.00;40.70;;;;;;5116051;28;20021;-35
2024/01/05 04:38:30;;;;;;;1.70;1.60;;;23.00;40.70;;;;;;5116272;28;20024;-32
2024/01/05 04:40:57;;;;;;;1.85;1.65;;;23.10;40.30;;;;;;5115931;28;20051;-33
2024/01/05 04:43:23;;;;;;;2.40;1.50;;;23.20;39.90;;;;;;5091273;28;20024;-36
2024/01/05 04:45:49;;;;;;;1.77;1.63;;;23.30;39.80;;;;;;5110645;27;20036;-32
2024/01/05 04:48:15;;;;;;;1.60;1.50;;;23.30;40.00;;;;;;5113664;28;20028;-34
2024/01/05 04:50:41;;;;;;;2.28;1.60;;;23.30;40.20;;;;;;5109481;28;20058;-34
2024/01/05 04:53:07;;;;;;;1.55;1.40;;;23.40;40.20;;;;;;5109007;28;20027;-31
2024/01/05 04:55:34;;;;;;;1.63;1.45;;;23.40;39.90;;;;;;5115103;28;20075;-32
2024/01/05 04:58:00;;;;;;;2.08;1.80;;;23.50;39.50;;;;;;5117811;28;20039;-34
2024/01/05 05:00:26;;;;;;;1.98;1.77;;;23.60;39.40;;;;;;5115152;28;20024;-36
2024/01/05 05:02:52;;;;;;;2.03;1.60;;;23.60;39.40;;;;;;5108881;28;20086;-34
2024/01/05 05:05:18;;;;;;;1.92;1.58;;;23.70;39.70;;;;;;5117864;28;20039;-33
2024/01/05 05:07:45;;;;;;;2.17;1.70;;;23.60;39.90;;;;;;5110874;28;20035;-33
2024/01/05 05:10:11;;;;;;;1.65;1.52;;;23.60;39.10;;;;;;5111885;28;20039;-32
2024/01/05 05:12:37;;;;;;;2.10;1.90;;;23.60;39.10;;;;;;5116876;27;20023;-34
2024/01/05 05:15:03;;;;;;;1.92;1.80;;;23.60;39.00;;;;;;5115898;28;20039;-33
2024/01/05 05:17:30;;;;;;;1.70;1.58;;;23.70;39.00;;;;;;5117096;28;20139;-35
2024/01/05 05:19:56;;;;;;;2.67;1.75;;;23.60;38.80;;;;;;5112150;28;20043;-34
2024/01/05 05:22:22;;;;;;;3.33;2.10;;;23.60;38.90;;;;;;5112420;28;20035;-33
2024/01/05 05:24:50;;;;;;;2.20;2.00;;;23.50;38.70;;;;;;5106900;28;20039;-35
2024/01/05 05:27:17;;;;;;;2.33;1.90;;;23.60;38.90;;;;;;5105070;28;20034;-31
2024/01/05 05:29:43;;;;;;;1.90;1.70;;;23.70;38.80;;;;;;5111725;28;20037;-35
2024/01/05 05:32:09;;;;;;;2.92;1.90;;;23.60;38.70;;;;;;5112002;28;20035;-32
2024/01/05 05:34:35;;;;;;;2.60;1.80;;;23.60;38.70;;;;;;5106779;28;20028;-34
2024/01/05 05:37:01;;;;;;;2.00;1.73;;;23.60;38.70;;;;;;5116568;28;20028;-36
2024/01/05 05:39:28;;;;;;;1.95;1.75;;;23.60;38.60;;;;;;5110014;28;20024;-33
2024/01/05 05:41:54;;;;;;;2.10;1.90;;;23.60;38.70;;;;;;5118698;28;20028;-35
2024/01/05 05:44:20;;;;;;;2.22;1.85;;;23.70;38.50;;;;;;5119720;28;20129;-35
2024/01/05 05:46:46;;;;;;;2.20;2.00;;;23.60;38.50;;;;;;5113024;27;20055;-35
2024/01/05 05:49:12;;;;;;;4.10;2.17;;;23.60;38.50;;;;;;5118143;28;20055;-36
2024/01/05 05:51:39;;;;;;;2.58;1.90;;;23.60;38.40;;;;;;5114235;28;20052;-34
2024/01/05 05:54:05;;;;;;;4.90;1.92;;;23.60;38.70;;;;;;5111230;28;20053;-35
2024/01/05 05:56:31;;;;;;;2.13;1.70;;;23.70;38.30;;;;;;5111002;28;20032;-35
2024/01/05 05:58:57;;;;;;;2.47;2.03;;;23.80;38.20;;;;;;5110340;28;20163;-35
2024/01/05 06:01:24;;;;;;;2.13;1.92;;;23.90;38.30;;;;;;5110215;28;20024;-31
2024/01/05 06:03:50;;;;;;;2.10;1.77;;;23.90;38.40;;;;;;5113170;28;20091;-32
2024/01/05 06:06:21;;;;;;;2.15;1.83;;;24.00;38.70;;;;;;5111798;28;20095;-31
2024/01/05 06:08:48;;;;;;;3.08;1.90;;;24.00;38.20;;;;;;5092412;28;20036;-32
2024/01/05 06:11:17;;;;;;;2.03;1.75;;;24.10;38.20;;;;;;5109169;28;20607;-36
2024/01/05 06:13:44;;;;;;;2.95;1.67;;;24.10;38.20;;;;;;5097611;28;20061;-32
2024/01/05 06:16:10;;;;;;;2.42;2.00;;;24.20;38.20;;;;;;5111865;28;20049;-36
2024/01/05 06:18:37;;;;;;;2.23;2.00;;;24.10;37.80;;;;;;5113252;28;20084;-36
2024/01/05 06:21:03;;;;;;;;;;;24.00;37.80;;;;;;5119047;28;20085;-35
2024/01/05 06:23:30;;;;;;;1.90;1.70;;;24.00;37.90;;;;;;5112269;28;19933;-35
2024/01/05 06:25:56;;;;;;;1.73;1.60;;;24.00;37.60;;;;;;5094484;28;20055;-34
2024/01/05 06:28:22;;;;;;;2.03;1.83;;;24.00;37.70;;;;;;5108827;28;20142;-35
2024/01/05 06:30:49;;;;;;;2.20;2.00;;;24.00;37.70;;;;;;5110400;28;20031;-32
2024/01/05 06:33:15;;;;;;;3.20;1.90;;;23.90;37.60;;;;;;5121239;27;20050;-34
2024/01/05 06:35:41;;;;;;;2.47;1.92;;;23.90;37.70;;;;;;5111243;28;20020;-32
2024/01/05 06:38:07;;;;;;;3.92;1.70;;;24.00;37.80;;;;;;5113114;28;20031;-31
2024/01/05 06:40:33;;;;;;;2.28;1.83;;;24.00;37.60;;;;;;5113189;28;20087;-34
2024/01/05 06:42:59;;;;;;;2.08;1.80;;;24.00;37.60;;;;;;5108540;28;20119;-36
2024/01/05 06:45:25;;;;;;;2.17;1.98;;;24.00;37.60;;;;;;5113397;28;20036;-33
2024/01/05 06:47:51;;;;;;;1.95;1.70;;;23.90;37.60;;;;;;5111675;28;20794;-33
2024/01/05 06:50:18;;;;;;;2.00;1.85;;;23.90;37.60;;;;;;5110061;28;20058;-31
2024/01/05 06:52:44;;;;;;;2.55;1.80;;;23.90;37.70;;;;;;5113328;28;20035;-33
2024/01/05 06:55:10;;;;;;;2.70;2.08;;;24.00;37.60;;;;;;5091746;28;20035;-35
2024/01/05 06:57:36;;;;;;;3.33;1.70;;;24.00;37.50;;;;;;5108387;28;20077;-31
2024/01/05 07:00:09;;;;;;;2.35;1.98;;;24.00;37.60;;;;;;5106714;28;20057;-32
2024/01/05 07:02:35;;;;;;;2.40;2.13;;;24.00;37.50;;;;;;5088837;28;20024;-33
2024/01/05 07:05:03;;;;;;;1.98;1.80;;;24.10;37.50;;;;;;5104594;28;20165;-34
2024/01/05 07:07:29;;;;;;;;;;;24.20;37.40;;;;;;5105968;28;20043;-32
2024/01/05 07:09:55;;;;;;;1.80;1.60;;;24.30;37.10;;;;;;5111672;28;19912;-31
2024/01/05 07:12:21;;;;;;;1.90;1.70;;;24.30;37.30;;;;;;5112562;28;20028;-34
2024/01/05 07:14:47;;;;;;;1.83;1.60;;;24.40;37.40;;;;;;5106013;28;20032;-33
2024/01/05 07:17:13;;;;;;;1.70;1.60;;;24.40;37.40;;;;;;5105882;28;20056;-34
2024/01/05 07:19:40;;;;;;;2.78;1.85;;;24.40;37.40;;;;;;5105439;28;20312;-32
2024/01/05 07:22:07;;;;;;;1.65;1.55;;;24.50;37.00;;;;;;5112055;28;20235;-32
2024/01/05 07:24:35;;;;;;;2.05;1.40;;;24.50;37.00;;;;;;5087254;28;20028;-34
2024/01/05 07:27:01;;;;;;;1.70;1.60;;;24.50;37.20;;;;;;5105075;28;20031;-35
2024/01/05 07:29:27;;;;;;;3.57;1.77;;;24.60;37.20;;;;;;5111181;28;20463;-33
2024/01/05 07:31:53;;;;;;;2.63;2.00;;;24.60;37.10;;;;;;5109384;28;20039;-33
2024/01/05 07:34:20;;;;;;;1.60;1.50;;;24.60;37.00;;;;;;5089635;28;20750;-35
2024/01/05 07:36:46;;;;;;;1.58;1.48;;;24.70;36.70;;;;;;5105253;28;20024;-33
2024/01/05 07:39:12;;;;;;;1.77;1.60;;;24.70;36.70;;;;;;5122575;28;20088;-32
2024/01/05 07:41:39;;;;;;;1.80;1.70;;;24.70;37.10;;;;;;5104312;28;20124;-31
2024/01/05 07:44:05;;;;;;;4.13;1.80;;;24.70;37.20;;;;;;5114715;28;20058;-34
2024/01/05 07:46:32;;;;;;;3.30;1.45;;;24.70;37.30;;;;;;5111623;28;20039;-30
2024/01/05 07:48:58;;;;;;;3.28;1.88;;;24.70;37.50;;;;;;5108563;28;20047;-33
2024/01/05 07:51:24;;;;;;;3.85;1.60;;;24.80;37.10;;;;;;5117187;28;20111;-30
2024/01/05 07:53:51;;;;;;;6.17;2.17;;;24.80;37.30;;;;;;5090376;28;20027;-33
2024/01/05 07:56:17;;;;;;;5.77;2.00;;;24.70;37.00;;;;;;5118629;28;20087;-32
2024/01/05 07:58:46;;;;;;;3.10;1.90;;;24.60;37.00;;;;;;5111220;28;20032;-31
2024/01/05 08:01:19;;;;;;;4.55;1.65;;;24.50;37.00;;;;;;5111480;28;20039;-32
2024/01/05 08:03:45;;;;;;;2.55;1.90;;;24.50;36.20;;;;;;5116938;28;20181;-35
2024/01/05 08:06:18;;;;;;;4.45;2.10;;;24.60;36.10;;;;;;5115287;28;20028;-33
2024/01/05 08:08:45;;;;;;;3.80;1.60;;;24.60;37.00;;;;;;5117645;28;20044;-33
2024/01/05 08:11:11;;;;;;;;;;;24.60;37.30;;;;;;5098930;28;20032;-33
2024/01/05 08:13:38;;;;;;;3.22;2.00;;;24.60;37.50;;;;;;5108262;28;19912;-31
2024/01/05 08:16:05;;;;;;;3.97;1.83;;;24.70;37.50;;;;;;5124003;28;20027;-35
2024/01/05 08:18:31;;;;;;;;;;;24.70;37.50;;;;;;5121395;28;20036;-37
2024/01/05 08:20:58;;;;;;;1.95;1.75;;;24.70;37.20;;;;;;5113354;28;20651;-33
2024/01/05 08:23:24;;;;;;;1.60;1.50;;;24.80;37.30;;;;;;5113572;27;20021;-33
2024/01/05 08:25:50;;;;;;;1.60;1.50;;;24.80;37.40;;;;;;5113685;27;20036;-35
2024/01/05 08:28:16;;;;;;;1.98;1.52;;;24.80;37.20;;;;;;5110445;28;20040;-32
2024/01/05 08:30:42;;;;;;;1.60;1.50;;;24.80;37.50;;;;;;5113040;27;20023;-33
2024/01/05 08:33:08;;;;;;;2.22;2.03;;;24.80;37.20;;;;;;5114093;27;20103;-32
2024/01/05 08:35:35;;;;;;;2.75;2.10;;;24.90;37.30;;;;;;5112704;28;20024;-32
2024/01/05 08:38:02;;;;;;;1.92;1.50;;;24.90;37.40;;;;;;5116096;27;20997;-34
2024/01/05 08:40:29;;;;;;;;;;;24.90;37.60;;;;;;5119634;28;20039;-34
2024/01/05 08:42:56;;;;;;;2.63;1.83;;;24.90;37.70;;;;;;5113202;28;19919;-31
2024/01/05 08:45:22;;;;;;;2.10;1.90;;;24.90;37.70;;;;;;5112986;28;20119;-33
2024/01/05 08:47:48;;;;;;;2.90;1.65;;;24.90;37.60;;;;;;5117656;27;20032;-32
2024/01/05 08:50:17;;;;;;;4.25;1.92;;;25.00;37.70;;;;;;5118714;28;20035;-41
2024/01/05 08:52:44;;;;;;;4.22;1.60;;;25.00;37.70;;;;;;5119999;28;20034;-35
2024/01/05 08:55:13;;;;;;;5.40;1.77;;;25.00;37.50;;;;;;5108188;28;20036;-33
2024/01/05 08:57:39;;;;;;;2.22;1.90;;;25.00;37.30;;;;;;5112343;28;20027;-32
2024/01/05 09:00:12;;;;;;;2.00;1.80;;;25.10;37.00;;;;;;5113736;28;20066;-29
2024/01/05 09:02:38;;;;;;;2.33;1.80;;;25.10;36.80;;;;;;5113451;27;20102;-29
2024/01/05 09:05:04;;;;;;;2.35;1.90;;;25.20;37.10;;;;;;5113884;28;20392;-33
2024/01/05 09:07:34;;;;;;;1.93;1.50;;;25.10;37.20;;;;;;5110749;28;20051;-32
2024/01/05 09:10:00;;;;;;;1.95;1.75;;;25.10;37.40;;;;;;5111642;28;20043;-33
2024/01/05 09:12:27;;;;;;;1.90;1.70;;;25.20;37.20;;;;;;5113711;28;20087;-32
2024/01/05 09:14:54;;;;;;;1.65;1.55;;;25.20;36.90;;;;;;5112691;28;20936;-34
2024/01/05 09:17:20;;;;;;;2.05;1.77;;;25.30;36.80;;;;;;5108924;28;20113;-32
2024/01/05 09:19:46;;;;;;;2.33;1.77;;;25.30;37.00;;;;;;5106457;28;20023;-34
2024/01/05 09:22:12;;;;;;;3.88;1.52;;;25.30;37.30;;;;;;5113338;28;20093;-34
2024/01/05 09:24:39;;;;;;;5.40;1.65;;;25.30;37.50;;;;;;5110873;28;20114;-33
2024/01/05 09:27:05;;;;;;;2.10;1.75;;;25.30;37.00;;;;;;5118105;28;20054;-33
2024/01/05 09:29:31;;;;;;;1.73;1.63;;;25.30;36.90;;;;;;5115842;28;20065;-33
2024/01/05 09:31:58;;;;;;;2.05;1.70;;;25.30;36.70;;;;;;5117546;28;20081;-31
2024/01/05 09:34:24;;;;;;;2.20;1.60;;;25.30;36.90;;;;;;5113597;28;20036;-35
2024/01/05 09:36:54;;;;;;;3.08;1.70;;;25.30;37.10;;;;;;5118758;28;20083;-36
2024/01/05 09:39:20;;;;;;;2.50;1.77;;;25.30;37.60;;;;;;5091850;28;20047;-34
2024/01/05 09:41:46;;;;;;;1.88;1.67;;;25.20;35.90;;;;;;5120025;28;20035;-35
2024/01/05 09:44:12;;;;;;;1.80;1.45;;;25.00;35.70;;;;;;5110170;28;20034;-32
2024/01/05 09:46:39;;;;;;;1.67;1.58;;;25.00;35.70;;;;;;5119179;28;20035;-34
2024/01/05 09:49:06;;;;;;;5.75;1.42;;;25.10;36.80;;;;;;5105691;28;20040;-30
2024/01/05 09:51:33;;;;;;;2.90;1.40;;;25.00;36.70;;;;;;5103915;28;20085;-36
2024/01/05 09:53:59;;;;;;;2.78;1.58;;;25.10;36.90;;;;;;5109036;28;20138;-31
2024/01/05 09:56:26;;;;;;;1.73;1.50;;;25.20;36.60;;;;;;5095418;28;20035;-33
2024/01/05 09:58:52;;;;;;;4.97;1.60;;;25.20;36.30;;;;;;5108418;28;20042;-35
2024/01/05 10:01:28;;;;;;;6.32;1.48;;;25.20;37.00;;;;;;5092769;28;20038;-33
2024/01/05 10:04:01;;;;;;;4.90;1.67;;;25.30;36.90;;;;;;5107367;28;20046;-33
2024/01/05 10:06:28;;;;;;;1.35;1.20;;;25.30;37.00;;;;;;5112029;28;20031;-31
2024/01/05 10:08:55;;;;;;;2.28;1.35;;;25.20;37.10;;;;;;5110880;28;20036;-37
2024/01/05 10:11:44;;;;;;;2.35;1.52;;;25.30;36.60;;;;;;5105771;28;20030;-36
2024/01/05 10:14:13;;;;;;;1.33;1.20;;;25.40;36.60;;;;;;5106330;28;20037;-35
2024/01/05 10:16:40;;;;;;;1.40;1.30;;;25.40;36.20;;;;;;5089442;28;20091;-34
2024/01/05 10:19:16;;;;;;;1.80;1.48;;;25.40;36.60;;;;;;5107664;28;20027;-35
2024/01/05 10:21:46;;;;;;;2.45;1.33;;;25.40;36.80;;;;;;5108894;28;20110;-31
2024/01/05 10:24:24;;;;;;;1.80;1.40;;;25.40;36.60;;;;;;5088919;28;20031;-35
2024/01/05 10:27:04;;;;;;;1.52;1.20;;;25.50;36.30;;;;;;5106639;28;20032;-33
2024/01/05 10:29:30;;;;;;;2.33;1.30;;;25.50;36.10;;;;;;5092504;28;20057;-34
2024/01/05 10:32:13;;;;;;;1.73;1.40;;;25.50;36.30;;;;;;5109755;28;20076;-31
2024/01/05 10:34:43;;;;;;;1.40;1.30;;;25.50;36.60;;;;;;5110225;28;20106;-35
2024/01/05 10:37:09;;;;;;;1.20;1.10;;;25.50;36.60;;;;;;5112167;28;20036;-32
2024/01/05 10:39:35;;;;;;;1.67;1.20;;;25.50;36.20;;;;;;5113212;28;20688;-34
2024/01/05 10:42:29;;;;;;;2.00;1.43;;;25.60;36.10;;;;;;5104937;28;20035;-36
2024/01/05 10:44:58;;;;;;;1.95;1.00;;;25.60;35.80;;;;;;5119708;28;20131;-33
2024/01/05 10:47:26;;;;;;;1.73;1.30;;;25.60;36.40;;;;;;5083840;28;20039;-36
2024/01/05 10:49:54;;;;;;;1.30;1.20;;;25.60;36.50;;;;;;5106681;28;20048;-36
2024/01/05 10:52:24;;;;;;;1.38;1.25;;;25.50;36.60;;;;;;5107217;28;20019;-32
2024/01/05 10:54:52;;;;;;;1.17;1.08;;;25.60;36.70;;;;;;5107485;27;20078;-35
2024/01/05 10:57:19;;;;;;;1.13;1.02;;;25.60;35.90;;;;;;5113765;28;20034;-35
2024/01/05 10:59:46;;;;;;;1.55;1.10;;;25.70;35.80;;;;;;5111573;28;20038;-31
2024/01/05 11:02:22;;;;;;;;;;;25.70;36.10;;;;;;5092988;28;20092;-31
2024/01/05 11:04:57;;;;;;;1.40;1.20;;;25.50;35.90;;;;;;5106398;28;19911;-33
2024/01/05 11:07:23;;;;;;;2.55;1.30;;;25.40;35.70;;;;;;5111807;28;20031;-34
2024/01/05 11:10:13;;;;;;;3.55;1.33;;;25.30;35.90;;;;;;5090274;28;20048;-36
2024/01/05 11:13:02;;;;;;;5.68;1.40;;;25.20;35.60;;;;;;5089773;28;20028;-31
2024/01/05 11:15:36;;;;;;;3.28;1.35;;;25.30;36.10;;;;;;5088666;28;20111;-35
2024/01/05 11:18:26;;;;;;;2.50;1.10;;;25.40;36.40;;;;;;5087875;28;20039;-35
2024/01/05 11:21:04;;;;;;;2.22;1.15;;;25.40;36.50;;;;;;5107355;28;20035;-35
2024/01/05 11:23:31;;;;;;;;;;;25.40;35.90;;;;;;5109587;28;20023;-34
2024/01/05 11:25:57;;;;;;;1.75;1.27;;;25.50;35.70;;;;;;5095821;28;21842;-36
2024/01/05 11:28:36;;;;;;;2.73;1.20;;;25.60;35.70;;;;;;5114933;28;20096;-33
2024/01/05 11:31:03;;;;;;;1.20;1.10;;;25.50;36.10;;;;;;5097248;28;20039;-35
2024/01/05 11:33:47;;;;;;;1.13;1.02;;;25.50;36.20;;;;;;5114284;28;20024;-34
2024/01/05 11:36:13;;;;;;;1.52;1.27;;;25.50;36.20;;;;;;5115762;28;20039;-31
2024/01/05 11:38:47;;;;;;;0.90;0.80;;;25.60;35.70;;;;;;5116079;28;20016;-35
2024/01/05 11:41:19;;;;;;;1.10;1.00;;;25.60;35.50;;;;;;5120569;28;20031;-34
2024/01/05 11:43:45;;;;;;;2.40;1.00;;;25.60;35.20;;;;;;5120783;27;20057;-31
2024/01/05 11:46:13;;;;;;;1.20;1.10;;;25.40;35.20;;;;;;5113344;28;20031;-33
2024/01/05 11:48:40;;;;;;;4.97;1.40;;;25.20;35.30;;;;;;5110236;28;20075;-35
2024/01/05 11:51:06;;;;;;;1.70;1.27;;;25.00;35.80;;;;;;5117484;27;20048;-35
2024/01/05 11:53:32;;;;;;;6.88;1.80;;;24.90;36.20;;;;;;5117539;28;20130;-37
2024/01/05 11:56:11;;;;;;;7.10;1.40;;;24.70;35.90;;;;;;5116004;28;20064;-35
2024/01/05 11:58:40;;;;;;;3.22;1.50;;;24.60;36.10;;;;;;5111392;27;20052;-32
2024/01/05 12:01:09;;;;;;;5.65;1.30;;;24.60;36.50;;;;;;5115127;28;20026;-34
2024/01/05 12:03:38;;;;;;;2.40;1.02;;;24.40;36.70;;;;;;5115851;28;20031;-34
2024/01/05 12:06:05;;;;;;;1.35;1.20;;;24.30;36.80;;;;;;5116877;28;20028;-33
2024/01/05 12:08:31;;;;;;;1.13;0.80;;;24.30;36.50;;;;;;5116641;28;20083;-33
2024/01/05 12:11:02;;;;;;;2.83;1.10;;;24.10;36.20;;;;;;5114589;28;20036;-31
2024/01/05 12:13:29;;;;;;;2.35;1.52;;;24.10;36.60;;;;;;5115476;28;20080;-29
2024/01/05 12:15:58;;;;;;;3.13;1.20;;;24.00;36.80;;;;;;5115631;28;20738;-34
2024/01/05 12:18:27;;;;;;;8.00;1.63;;;23.90;37.60;;;;;;5111891;27;20046;-34
2024/01/05 12:20:57;;;;;;;32.05;5.25;;;23.80;37.80;;;;;;5112718;28;20110;-36
2024/01/05 12:23:27;;;;;;;27.50;4.28;;;23.70;37.20;;;;;;5110542;28;20036;-36
2024/01/05 12:26:06;;;;;;;16.10;3.90;;;23.70;37.30;;;;;;5114383;28;20053;-35
2024/01/05 12:28:33;;;;;;;14.93;2.97;;;23.60;37.30;;;;;;5110499;28;20087;-33
2024/01/05 12:31:00;;;;;;;10.18;2.58;;;23.50;37.40;;;;;;5113466;28;20020;-37
2024/01/05 12:33:27;;;;;;;7.03;2.25;;;23.40;37.60;;;;;;5097662;28;20027;-36
2024/01/05 12:35:53;;;;;;;6.22;1.98;;;23.40;37.30;;;;;;5109002;28;20385;-36
2024/01/05 12:38:26;;;;;;;6.00;2.33;;;23.30;37.20;;;;;;5093473;28;20020;-34
2024/01/05 12:41:04;;;;;;;4.97;1.70;;;23.30;37.40;;;;;;5110948;28;20284;-35
2024/01/05 12:43:30;;;;;;;4.55;1.67;;;23.20;37.50;;;;;;5098874;28;20020;-33
2024/01/05 12:46:00;;;;;;;7.25;1.92;;;23.10;37.80;;;;;;5115129;28;20036;-36
2024/01/05 12:48:26;;;;;;;3.03;1.70;;;23.10;37.70;;;;;;5129501;27;20028;-32
2024/01/05 12:51:07;;;;;;;2.13;1.27;;;23.00;37.50;;;;;;5113166;28;20108;-35